Time,TemperatureF,DewpointF,PressureIn,WindDirection,WindDirectionDegrees,WindSpeedMPH,WindSpeedGustMPH,Humidity,HourlyPrecipIn,Conditions,Clouds,dailyrainin,SoftwareType,DateUTC
2013-10-25 00:03:00,32.0,29.0,30.43,NNW,335,0.0,0.0,88,0.00,,,0.00,,2013-10-25 05:03:00,
2013-10-25 08:11:00,26.0,24.0,30.55,ENE,71,0.0,2.0,92,0.00,,,0.00,,2013-10-25 13:11:00,
2013-10-25 08:21:00,27.0,25.0,30.55,ENE,71,0.0,0.0,92,0.00,,,0.00,,2013-10-25 13:21:00,
2013-10-25 08:41:00,28.0,26.0,30.57,SSE,148,0.0,1.0,92,0.00,,,0.00,,2013-10-25 13:41:00,
2013-10-25 08:52:00,30.0,27.0,30.57,SSE,148,0.0,0.0,90,0.00,,,0.00,,2013-10-25 13:52:00,
2013-10-25 09:11:00,32.0,29.0,30.57,SSE,155,0.0,1.0,88,0.00,,,0.00,,2013-10-25 14:11:00,
2013-10-25 09:22:00,34.0,31.0,30.58,SSE,152,0.0,1.0,87,0.00,,,0.00,,2013-10-25 14:22:00,
2013-10-25 09:42:00,37.0,32.0,30.58,SSE,152,0.0,1.0,83,0.00,,,0.00,,2013-10-25 14:42:00,
2013-10-25 09:52:00,39.0,31.0,30.58,NNW,327,0.0,4.0,73,0.00,,,0.00,,2013-10-25 14:52:00,
2013-10-25 10:11:00,41.0,31.0,30.58,NE,42,0.0,5.0,68,0.00,,,0.00,,2013-10-25 15:11:00,
2013-10-25 10:21:00,42.0,30.0,30.58,NNW,338,2.0,6.0,63,0.00,,,0.00,,2013-10-25 15:21:00,
2013-10-25 10:43:00,43.0,30.0,30.58,NW,325,4.0,8.0,59,0.00,,,0.00,,2013-10-25 15:43:00,
2013-10-25 10:53:00,43.0,29.0,30.58,ENE,71,2.0,8.0,58,0.00,,,0.00,,2013-10-25 15:53:00,
2013-10-25 11:13:00,43.0,28.0,30.58,NW,306,0.0,5.0,56,0.00,,,0.00,,2013-10-25 16:13:00,
2013-10-25 11:23:00,44.0,28.0,30.58,NE,40,2.0,8.0,54,0.00,,,0.00,,2013-10-25 16:23:00,
2013-10-25 11:43:00,45.0,29.0,30.58,NNW,346,1.0,7.0,54,0.00,,,0.00,,2013-10-25 16:43:00,
2013-10-25 11:53:00,45.0,28.0,30.57,North,355,3.0,6.0,52,0.00,,,0.00,,2013-10-25 16:53:00,
2013-10-25 12:13:00,46.0,30.0,30.57,ENE,72,1.0,5.0,54,0.00,,,0.00,,2013-10-25 17:13:00,
2013-10-25 12:22:00,46.0,29.0,30.56,ESE,107,1.0,7.0,52,0.00,,,0.00,,2013-10-25 17:22:00,
2013-10-25 12:43:00,46.0,29.0,30.55,ESE,110,2.0,10.0,52,0.00,,,0.00,,2013-10-25 17:43:00,
2013-10-25 12:52:00,47.0,29.0,30.55,NNW,329,2.0,6.0,50,0.00,,,0.00,,2013-10-25 17:52:00,
2013-10-25 13:12:00,47.0,29.0,30.54,SSE,163,1.0,7.0,49,0.00,,,0.00,,2013-10-25 18:12:00,
2013-10-25 13:21:00,47.0,28.0,30.53,ESE,102,1.0,6.0,48,0.00,,,0.00,,2013-10-25 18:21:00,
2013-10-25 13:42:00,49.0,30.0,30.53,North,5,3.0,9.0,47,0.00,,,0.00,,2013-10-25 18:42:00,
2013-10-25 13:52:00,50.0,29.0,30.52,ESE,123,1.0,7.0,45,0.00,,,0.00,,2013-10-25 18:52:00,
2013-10-25 14:11:00,50.0,28.0,30.51,East,81,4.0,9.0,43,0.00,,,0.00,,2013-10-25 19:11:00,
2013-10-25 14:22:00,49.0,27.0,30.50,NE,46,0.0,5.0,43,0.00,,,0.00,,2013-10-25 19:22:00,
2013-10-25 14:42:00,50.0,27.0,30.50,ENE,73,3.0,7.0,41,0.00,,,0.00,,2013-10-25 19:42:00,
2013-10-25 14:52:00,50.0,28.0,30.49,SSE,165,1.0,5.0,42,0.00,,,0.00,,2013-10-25 19:52:00,
2013-10-25 15:12:00,51.0,29.0,30.49,NE,34,1.0,4.0,42,0.00,,,0.00,,2013-10-25 20:12:00,
2013-10-25 15:22:00,51.0,29.0,30.48,East,88,2.0,7.0,42,0.00,,,0.00,,2013-10-25 20:22:00,
2013-10-25 15:32:00,51.0,29.0,30.48,East,88,2.0,7.0,42,0.00,,,0.00,,2013-10-25 20:32:00,
2013-10-25 15:42:00,51.0,29.0,30.48,East,88,2.0,7.0,42,0.00,,,0.00,,2013-10-25 20:42:00,
2013-10-25 15:52:00,51.0,28.0,30.47,SW,223,1.0,4.0,41,0.00,,,0.00,,2013-10-25 20:52:00,
2013-10-25 16:11:00,51.0,27.0,30.47,South,170,2.0,5.0,39,0.00,,,0.00,,2013-10-25 21:11:00,
2013-10-25 16:22:00,51.0,28.0,30.46,ESE,109,2.0,5.0,40,0.00,,,0.00,,2013-10-25 21:22:00,
2013-10-25 16:43:00,51.0,29.0,30.46,SSW,206,0.0,4.0,42,0.00,,,0.00,,2013-10-25 21:43:00,
2013-10-25 16:54:00,51.0,28.0,30.45,WNW,288,0.0,4.0,40,0.00,,,0.00,,2013-10-25 21:54:00,
2013-10-25 17:13:00,51.0,27.0,30.45,SSW,202,0.0,3.0,39,0.00,,,0.00,,2013-10-25 22:13:00,
2013-10-25 17:23:00,50.0,28.0,30.45,SSW,194,0.0,3.0,42,0.00,,,0.00,,2013-10-25 22:23:00,
2013-10-25 17:42:00,49.0,26.0,30.44,East,96,0.0,2.0,41,0.00,,,0.00,,2013-10-25 22:42:00,
2013-10-25 17:52:00,49.0,27.0,30.44,SE,141,0.0,1.0,43,0.00,,,0.00,,2013-10-25 22:52:00,
2013-10-25 18:12:00,49.0,27.0,30.43,ESE,102,0.0,1.0,43,0.00,,,0.00,,2013-10-25 23:12:00,
2013-10-25 18:22:00,48.0,30.0,30.43,SSW,211,0.0,2.0,49,0.00,,,0.00,,2013-10-25 23:22:00,
2013-10-25 18:42:00,47.0,29.0,30.42,SSW,211,0.0,2.0,49,0.00,,,0.00,,2013-10-25 23:42:00,
2013-10-25 18:52:00,45.0,30.0,30.43,SSW,211,0.0,0.0,55,0.00,,,0.00,,2013-10-25 23:52:00,
2013-10-25 19:11:00,44.0,31.0,30.43,SE,126,0.0,1.0,59,0.00,,,0.00,,2013-10-26 00:11:00,
2013-10-25 19:22:00,42.0,31.0,30.43,SW,226,0.0,0.0,64,0.00,,,0.00,,2013-10-26 00:22:00,
2013-10-25 19:42:00,41.0,32.0,30.42,ENE,63,0.0,1.0,69,0.00,,,0.00,,2013-10-26 00:42:00,
2013-10-25 19:52:00,39.0,30.0,30.42,ENE,67,0.0,1.0,70,0.00,,,0.00,,2013-10-26 00:52:00,
2013-10-25 20:12:00,38.0,30.0,30.42,ENE,71,0.0,1.0,74,0.00,,,0.00,,2013-10-26 01:12:00,
2013-10-25 20:22:00,38.0,31.0,30.42,ENE,72,0.0,0.0,77,0.00,,,0.00,,2013-10-26 01:22:00,
2013-10-25 20:42:00,37.0,31.0,30.42,ENE,71,0.0,0.0,79,0.00,,,0.00,,2013-10-26 01:42:00,
2013-10-25 20:52:00,35.0,30.0,30.42,East,92,0.0,0.0,82,0.00,,,0.00,,2013-10-26 01:52:00,
2013-10-25 21:12:00,35.0,30.0,30.41,East,92,0.0,0.0,83,0.00,,,0.00,,2013-10-26 02:12:00,
2013-10-25 21:22:00,34.0,30.0,30.41,North,355,0.0,0.0,85,0.00,,,0.00,,2013-10-26 02:22:00,
2013-10-25 21:43:00,34.0,30.0,30.41,NNE,13,0.0,0.0,86,0.00,,,0.00,,2013-10-26 02:43:00,
2013-10-25 21:52:00,33.0,29.0,30.41,NNE,13,0.0,0.0,86,0.00,,,0.00,,2013-10-26 02:52:00,
2013-10-25 22:12:00,33.0,30.0,30.41,NNE,17,0.0,1.0,87,0.00,,,0.00,,2013-10-26 03:12:00,
2013-10-25 22:22:00,33.0,30.0,30.41,NNE,30,0.0,1.0,87,0.00,,,0.00,,2013-10-26 03:22:00,
2013-10-25 22:44:00,32.0,29.0,30.40,NNE,30,0.0,0.0,87,0.00,,,0.00,,2013-10-26 03:44:00,
2013-10-25 22:54:00,32.0,29.0,30.40,NNE,30,0.0,0.0,88,0.00,,,0.00,,2013-10-26 03:54:00,
2013-10-25 23:14:00,31.0,28.0,30.40,NNE,30,0.0,0.0,89,0.00,,,0.00,,2013-10-26 04:14:00,
2013-10-25 23:24:00,31.0,28.0,30.39,ENE,72,0.0,1.0,90,0.00,,,0.00,,2013-10-26 04:24:00,
2013-10-25 23:44:00,31.0,28.0,30.39,ENE,72,0.0,0.0,90,0.00,,,0.00,,2013-10-26 04:44:00,
2013-10-25 23:54:00,31.0,28.0,30.38,ENE,72,0.0,0.0,90,0.00,,,0.00,,2013-10-26 04:54:00,